KRNT - Renton, Washington, USA
Distance from station: W 21mi, 33km
Updated: Thu, 21-Oct-2021 7:16pm PDT
Light rain, Overcast
Light rain, Overcast
 Wind from varies
Wind: varies 5 mph , 7 km/h
Temperature: 57°F , 14°C
Dew Point: 52°F , 11°C
Humidity: 82%
Barometer: 29.79 inHg , 1008.8 hPa
Visibility: 8 miles , 13 km
Cloud details: 1800 ft
7000 ft
2021/10/22 02:16 KRNT 220216Z VRB04KT 8SM -RA BKN018 OVC070 14/11 A2979 RMK AO2 P0001 T01390106
KBFI - Seattle/Boeing, Washington, USA
Distance from station: W 25mi, 41km
Updated: Thu, 21-Oct-2021 6:53pm PDT
Light rain, Overcast
Light rain, Overcast
 Wind from SW
Wind: SW 13 mph , 20 km/h, Gust: 26 mph , 43 km/h
Temperature: 57°F , 14°C
Dew Point: 52°F , 11°C
Humidity: 82%
Barometer: 29.78 inHg , 1008.5 hPa
Visibility: 9 miles , 14 km
Cloud details: 8000 ft
2021/10/22 01:53 KBFI 220153Z 22011G23KT 9SM -RA OVC080 14/11 A2978 RMK AO2 RAB01 SLP083 P0000 T01390111 $
 
KSEA - Seattle/Metro, Washington, USA
Distance from station: W 25mi, 41km
Updated: Thu, 21-Oct-2021 6:53pm PDT
Light rain, Mist, Overcast
Light rain, Mist, Overcast
 Wind from SW
Wind: SW 13 mph , 20 km/h
Temperature: 55°F , 13°C
Dew Point: 52°F , 11°C
Humidity: 88%
Barometer: 29.78 inHg , 1008.5 hPa
Summary: Light rain, Mist
Visibility: 6 miles , 10 km
Cloud details: 7000 ft
2021/10/22 01:53 KSEA 220153Z 23011KT 6SM -RA BR OVC070 13/11 A2978 RMK AO2 RAB14 SLP091 P0002 T01280111
KSMP - Stampede Pass, Washington, USA
Distance from station: SE 26mi, 41km
Updated: Thu, 21-Oct-2021 6:56pm PDT

 
Temperature: 46°F , 8°C
Dew Point: 37°F , 3°C
Humidity: 71%
Barometer: 29.85 inHg , 1010.8 hPa
Visibility: 10 miles , 16 km
Cloud details: 6500 ft
10000 ft
2021/10/22 01:56 KSMP 220156Z AUTO 10SM FEW065 OVC100 08/03 A2985 RMK AO2 SLP112 T00830033
 
KPLU - Puyallup/Thun, Washington, USA
Distance from station: SW 36mi, 59km
Updated: Thu, 21-Oct-2021 7:15pm PDT
Light drizzle, Overcast
Light drizzle, Overcast
 Wind from calm
Wind: Calm
Temperature: 55°F , 13°C
Dew Point: 55°F , 13°C
Humidity: 100%
Barometer: 29.79 inHg , 1008.8 hPa
Visibility: 6 miles , 10 km
Cloud details: 1300 ft
2021/10/22 02:15 KPLU 220215Z AUTO 00000KT 6SM -DZ OVC013 13/13 A2979 RMK AO2
KPAE - Everett, Washington, USA
Distance from station: NW 37mi, 60km
Updated: Thu, 21-Oct-2021 6:53pm PDT

 Wind from SSW
Wind: SSW 17 mph , 28 km/h
Temperature: 59°F , 15°C
Dew Point: 48°F , 9°C
Humidity: 68%
Barometer: 29.75 inHg , 1007.5 hPa
Visibility: 10 miles , 16 km
Cloud details: 7000 ft
8500 ft
2021/10/22 01:53 KPAE 220153Z 20015KT 10SM BKN070 OVC085 15/09 A2975 RMK AO2 WSHFT 0051 SLP075 T01500089 $
 
KTIW - Tacoma, Washington, USA
Distance from station: WSW 41mi, 66km
Updated: Thu, 21-Oct-2021 6:53pm PDT
Light rain, Mist, Overcast
Light rain, Mist, Overcast
 Wind from varies
Wind: varies 7 mph , 11 km/h
Temperature: 54°F , 12°C
Dew Point: 54°F , 12°C
Humidity: 100%
Barometer: 29.79 inHg , 1008.8 hPa
Summary: Light rain, Mist
Visibility: 6 miles , 10 km
Cloud details: 1500 ft
3100 ft
7000 ft
2021/10/22 01:53 KTIW 220153Z VRB06KT 6SM -RA BR FEW015 SCT031 OVC070 12/12 A2979 RMK AO2 SLP087 P0004 T01170117
KTCM - Tacoma/Mc Chord, Washington, USA
Distance from station: SW 42mi, 67km
Updated: Thu, 21-Oct-2021 6:58pm PDT
Light rain, Overcast
Light rain, Overcast
 Wind from W
Wind: W 3 mph , 6 km/h
Temperature: 55°F , 13°C
Dew Point: 54°F , 12°C
Humidity: 94%
Barometer: 29.77 inHg , 1008.1 hPa
Visibility: 7 miles , 11 km
Cloud details: 6500 ft
2021/10/22 01:58 KTCM 220158Z AUTO 27003KT 7SM -RA OVC065 13/12 A2977 RMK AO2 RAE0057RAB0057E0058RAB0059 SLP085 P0006 T01270122 $
 
KPWT - Bremerton Ntnl, Washington, USA
Distance from station: W 45mi, 73km
Updated: Thu, 21-Oct-2021 6:56pm PDT
Rain, Overcast
Rain, Overcast
 Wind from SW
Wind: SW 12 mph , 19 km/h
Temperature: 54°F , 12°C
Dew Point: 52°F , 11°C
Humidity: 94%
Barometer: 29.78 inHg , 1008.5 hPa
Visibility: 10 miles , 16 km
Cloud details: 4200 ft
2021/10/22 01:56 KPWT 220156Z AUTO 23010KT 10SM RA OVC042 12/11 A2978 RMK AO2 SLP089 P0004 T01220111
KGRF - Fort Lewis/Gray, Washington, USA
Distance from station: SW 48mi, 77km
Updated: Thu, 21-Oct-2021 6:58pm PDT
Light rain, Overcast
Light rain, Overcast
 Wind from SSW
Wind: SSW 5 mph , 7 km/h
Temperature: 55°F , 13°C
Dew Point: 52°F , 11°C
Humidity: 88%
Barometer: 29.77 inHg , 1008.1 hPa
Visibility: 10 miles , 16 km
Cloud details: 6000 ft
2021/10/22 01:58 KGRF 220158Z 20004KT 10SM -RA OVC060 13/11 A2977 RMK AO2A SLP085 P0004 T01300111 $
 
KAWO - Arlington Muni, Washington, USA
Distance from station: NNW 50mi, 80km
Updated: Thu, 21-Oct-2021 6:56pm PDT

 Wind from SSW
Wind: SSW 12 mph , 19 km/h
Temperature: 64°F , 18°C
Dew Point: 45°F , 7°C
Humidity: 49%
Barometer: 29.72 inHg , 1006.4 hPa
Visibility: 10 miles , 16 km
Cloud details: 9000 ft
2021/10/22 01:56 KAWO 220156Z AUTO 21010KT 10SM OVC090 18/07 A2972 RMK AO2 PRESRR SLP067 T01830072 PNO $